createdAt,value
2022-11-28T00:00:22.697Z,1308.6
2022-11-28T00:02:06.166Z,1301.8
2022-11-28T00:03:49.487Z,1301.2
2022-11-28T00:05:32.919Z,1299.7
2022-11-28T00:07:16.272Z,1300.8
2022-11-28T00:08:59.692Z,1303
2022-11-28T00:12:26.127Z,1305
2022-11-28T00:14:09.546Z,1304.1
2022-11-28T00:15:52.934Z,1304.1
2022-11-28T00:17:36.338Z,1304.5
2022-11-28T00:19:19.719Z,1307.6
2022-11-28T00:21:03.114Z,1308.1
2022-11-28T00:22:46.524Z,1308.3
2022-11-28T00:24:29.923Z,1312.1
2022-11-28T00:27:56.390Z,1309.4
2022-11-28T00:29:39.780Z,1306.3
2022-11-28T00:31:23.178Z,1306
2022-11-28T00:33:06.571Z,1300.2
2022-11-28T00:34:49.978Z,1298.2
2022-11-28T00:36:33.466Z,1294.8
2022-11-28T00:38:16.788Z,1291.3
2022-11-28T00:40:00.164Z,1290
2022-11-28T00:43:26.692Z,1287.6
2022-11-28T00:45:10.041Z,1285.2
2022-11-28T00:46:53.433Z,1280.7
2022-11-28T00:48:36.828Z,1280.6
2022-11-28T00:50:20.230Z,1282.3
2022-11-28T00:52:03.626Z,1283.8
2022-11-28T00:53:47.020Z,1283.4
2022-11-28T00:55:30.418Z,1283.7
2022-11-28T00:57:14.117Z,1285.4
2022-11-28T00:58:57.514Z,1287.5
2022-11-28T01:00:40.905Z,1284.5
2022-11-28T01:02:24.311Z,1277.3
2022-11-28T01:04:07.720Z,1281.4
2022-11-28T01:05:51.093Z,1284.6
2022-11-28T01:07:34.492Z,1282.6
2022-11-28T01:09:17.891Z,1280
2022-11-28T01:12:44.401Z,1280.8
2022-11-28T01:14:27.818Z,1281.4
2022-11-28T01:16:11.147Z,1277.3
2022-11-28T01:17:54.549Z,1273.3
2022-11-28T01:19:37.966Z,1270.6
2022-11-28T01:21:21.334Z,1269.5
2022-11-28T01:23:04.748Z,1268.1
2022-11-28T01:24:48.301Z,1267.4
2022-11-28T01:28:14.604Z,1267
2022-11-28T01:29:58.014Z,1266.6
2022-11-28T01:31:41.393Z,1268.6
2022-11-28T01:33:24.813Z,1270
2022-11-28T01:35:08.190Z,1268.8
2022-11-28T01:36:51.614Z,1268.4
2022-11-28T01:38:34.978Z,1268.8
2022-11-28T01:40:18.406Z,1269.6
2022-11-28T01:43:44.855Z,1265.9
2022-11-28T01:45:28.323Z,1264
2022-11-28T01:47:11.656Z,1264.6
2022-11-28T01:48:55.064Z,1264.1
2022-11-28T01:50:38.449Z,1267.2
2022-11-28T01:52:21.845Z,1270.6
2022-11-28T01:54:05.231Z,1270.7
2022-11-28T01:55:48.629Z,1271.8
2022-11-28T02:00:57.862Z,1267.9
2022-11-28T02:02:41.276Z,1264.7
2022-11-28T02:04:24.663Z,1265.6
2022-11-28T02:06:08.059Z,1262.2
2022-11-28T02:07:51.459Z,1259.1
2022-11-28T02:09:34.848Z,1258.3
2022-11-28T02:11:18.263Z,1259.2
2022-11-28T02:13:01.715Z,1260.1
2022-11-28T02:18:10.908Z,1255.2
2022-11-28T02:19:54.306Z,1251.5
2022-11-28T02:21:37.697Z,1251.4
2022-11-28T02:23:21.077Z,1247.4
2022-11-28T02:25:04.482Z,1246.8
2022-11-28T02:26:47.872Z,1249.7
2022-11-28T02:28:31.299Z,1253.7
2022-11-28T02:30:14.686Z,1256.3
2022-11-28T02:33:41.146Z,1254.5
2022-11-28T02:35:24.554Z,1254.5
2022-11-28T02:37:07.937Z,1249.1
2022-11-28T02:38:51.417Z,1243.3
2022-11-28T02:40:34.749Z,1239.7
2022-11-28T02:42:18.126Z,1241.2
2022-11-28T02:44:01.530Z,1240
2022-11-28T02:45:44.929Z,1239.2
2022-11-28T02:49:11.396Z,1237.7
2022-11-28T02:50:54.803Z,1237.8
2022-11-28T02:52:38.229Z,1238.6
2022-11-28T02:54:21.599Z,1235.2
2022-11-28T02:56:04.990Z,1230.7
2022-11-28T02:57:48.389Z,1230.7
2022-11-28T02:59:31.780Z,1230.7
2022-11-28T03:01:15.240Z,1229.1
2022-11-28T03:04:41.646Z,1230.4
2022-11-28T03:06:25.113Z,1232.8
2022-11-28T03:08:08.438Z,1236.2
2022-11-28T03:09:51.862Z,1237.1
2022-11-28T03:11:35.230Z,1237
2022-11-28T03:13:18.640Z,1234.2
2022-11-28T03:15:02.024Z,1230.8
2022-11-28T03:16:45.440Z,1230.7
2022-11-28T03:21:54.671Z,1232.9
2022-11-28T03:23:38.074Z,1235.3
2022-11-28T03:25:21.458Z,1234.6
2022-11-28T03:27:04.855Z,1230.1
2022-11-28T03:28:48.280Z,1230.3
2022-11-28T03:30:31.661Z,1229.4
2022-11-28T03:32:15.058Z,1225.1
2022-11-28T03:33:58.434Z,1224.6
2022-11-28T03:37:24.913Z,1223.7
2022-11-28T03:39:08.310Z,1223.7
2022-11-28T03:40:51.814Z,1226.2
2022-11-28T03:42:35.097Z,1230.6
2022-11-28T03:44:18.517Z,1230.1
2022-11-28T03:46:01.931Z,1228.2
2022-11-28T03:47:45.301Z,1229.3
2022-11-28T03:49:28.691Z,1224.7
2022-11-28T03:52:55.153Z,1222
2022-11-28T03:54:38.588Z,1221.2
2022-11-28T03:56:21.964Z,1216
2022-11-28T03:58:05.406Z,1210.3
2022-11-28T03:59:48.755Z,1206
2022-11-28T04:01:32.141Z,1205.4
2022-11-28T04:03:15.548Z,1204.8
2022-11-28T04:04:58.941Z,1206.4
2022-11-28T04:08:25.454Z,1204.6
2022-11-28T04:10:08.822Z,1198.3
2022-11-28T04:11:52.289Z,1199.2
2022-11-28T04:13:35.612Z,1202
2022-11-28T04:15:19.007Z,1200.1
2022-11-28T04:17:02.394Z,1201
2022-11-28T08:44:06.014Z,869.7
2022-11-28T08:45:49.169Z,869.4
2022-11-28T08:47:32.615Z,869.3
2022-11-28T08:49:16.042Z,870.8
2022-11-28T08:50:59.375Z,876.4
2022-11-28T08:52:42.846Z,881.5
2022-11-28T08:56:09.258Z,889.6
2022-11-28T08:57:52.664Z,894.1
2022-11-28T08:59:36.034Z,897.5
2022-11-28T09:01:19.490Z,897.6
2022-11-28T09:03:02.903Z,897
2022-11-28T09:04:46.309Z,896.4
2022-11-28T09:06:29.654Z,895.3
2022-11-28T09:08:13.030Z,894.8
2022-11-28T09:09:56.722Z,893.4
2022-11-28T09:11:40.193Z,891.8
2022-11-28T09:13:23.550Z,893.3
2022-11-28T09:15:06.915Z,892
2022-11-28T09:16:50.336Z,891.5
2022-11-28T09:18:33.693Z,889.8
2022-11-28T09:20:17.075Z,889.4
2022-11-28T09:22:00.486Z,888
2022-11-28T09:25:26.981Z,889.8
2022-11-28T09:27:10.368Z,891.4
2022-11-28T09:28:53.763Z,893.2
2022-11-28T09:30:37.016Z,891.2
2022-11-28T09:32:20.534Z,888.7
2022-11-28T09:34:03.936Z,888.5
2022-11-28T09:35:47.284Z,891.3
2022-11-28T09:40:56.427Z,889.9
2022-11-28T09:42:39.859Z,889.7
2022-11-28T09:44:23.341Z,890.3
2022-11-28T09:46:06.682Z,891.7
2022-11-28T09:47:50.163Z,894.1
2022-11-28T09:49:33.561Z,894.1
2022-11-28T09:51:16.857Z,890.1
2022-11-28T09:56:26.080Z,880.4
2022-11-28T09:58:09.558Z,880.7
2022-11-28T09:59:53.016Z,882.5
2022-11-28T10:01:36.236Z,882.1
2022-11-28T10:03:19.772Z,881.2
2022-11-28T10:05:03.120Z,879.3
2022-11-28T10:06:46.421Z,879.1
2022-11-28T10:10:12.940Z,878.7
2022-11-28T10:11:56.423Z,882.8
2022-11-28T10:13:39.705Z,883.2
2022-11-28T10:15:23.095Z,883.4
2022-11-28T10:17:06.567Z,882
2022-11-28T10:18:49.874Z,881
2022-11-28T10:20:33.319Z,878.6
2022-11-28T10:22:16.753Z,874.8
2022-11-28T10:25:43.302Z,872.5
2022-11-28T10:27:26.736Z,877.5
2022-11-28T10:29:10.073Z,882
2022-11-28T10:30:53.441Z,884.7
2022-11-28T10:32:36.822Z,886.1
2022-11-28T10:34:20.336Z,887.6
2022-11-28T10:36:03.657Z,895.4
2022-11-28T10:39:30.119Z,907.6
2022-11-28T10:41:13.599Z,909.2
2022-11-28T10:42:56.922Z,916.7
2022-11-28T10:44:40.339Z,917.8
2022-11-28T10:46:23.574Z,923.7
2022-11-28T10:48:07.153Z,927.6
2022-11-28T10:49:50.523Z,929.3
2022-11-28T10:51:33.910Z,931.2
2022-11-28T10:53:17.601Z,928.3
2022-11-28T10:55:01.009Z,931.2
2022-11-28T10:56:44.408Z,938.1
2022-11-28T10:58:27.790Z,940.1
2022-11-28T11:00:11.267Z,941.3
2022-11-28T11:01:54.489Z,941.1
2022-11-28T11:03:37.981Z,941
2022-11-28T11:07:04.304Z,946.7
2022-11-28T11:08:47.852Z,946.6
2022-11-28T11:10:31.173Z,951.1
2022-11-28T11:12:14.633Z,957.8
2022-11-28T11:13:57.976Z,964.8
2022-11-28T11:15:41.283Z,971.7
2022-11-28T11:17:24.742Z,980.3
2022-11-28T11:22:33.955Z,1100.1
2022-11-28T11:24:17.332Z,1098.2
2022-11-28T11:26:00.759Z,1097.5
2022-11-28T11:27:44.234Z,1097.1
2022-11-28T11:29:27.501Z,1100.7
2022-11-28T11:31:11.015Z,1090
2022-11-28T11:32:54.332Z,1076.5
2022-11-28T11:36:20.877Z,1072.8
2022-11-28T11:38:04.256Z,1070.7
2022-11-28T11:39:47.565Z,1070.7
2022-11-28T11:41:31.054Z,1069.8
2022-11-28T11:43:14.472Z,1066.7
2022-11-28T11:44:57.839Z,1061.6
2022-11-28T11:46:41.223Z,1057.3
2022-11-28T11:50:07.684Z,1054
2022-11-28T11:51:51.021Z,1056.4
2022-11-28T11:53:34.618Z,1057.6
2022-11-28T11:55:17.961Z,1057.1
2022-11-28T11:57:01.342Z,1056.7
2022-11-28T11:58:44.813Z,1050.2
2022-11-28T12:00:28.167Z,1041.8
2022-11-28T12:03:54.612Z,1032.3
2022-11-28T12:05:37.960Z,1032.4
2022-11-28T12:07:21.293Z,1032.8
2022-11-28T12:09:04.807Z,1034.6
2022-11-28T12:10:48.081Z,1039.2
2022-11-28T12:12:31.623Z,1040.6
2022-11-28T12:14:15.047Z,1039.2
2022-11-28T12:17:41.496Z,1056.2
2022-11-28T12:19:24.842Z,1059.5
2022-11-28T12:21:08.275Z,1062.5
2022-11-28T12:22:51.684Z,1067.2
2022-11-28T12:24:35.092Z,1079.7
2022-11-28T12:26:18.522Z,1079.4
2022-11-28T12:28:01.895Z,1072.3
2022-11-28T12:33:10.963Z,1082.9
2022-11-28T12:34:54.332Z,1085
2022-11-28T12:36:37.927Z,1086.1
2022-11-28T12:38:21.233Z,1084.5
2022-11-28T12:40:04.526Z,1087.2
2022-11-28T12:41:47.985Z,1090.6
2022-11-28T12:43:31.385Z,1090.4
2022-11-28T12:46:57.916Z,1106.9
2022-11-28T12:48:41.200Z,1120.4
2022-11-28T12:50:24.613Z,1126.6
2022-11-28T12:52:08.205Z,1130.4
2022-11-28T12:53:51.534Z,1133.1
2022-11-28T12:55:34.940Z,1136.3
2022-11-28T12:57:18.388Z,1138.2
2022-11-28T13:02:27.650Z,1138.3
2022-11-28T13:04:10.930Z,1139.7
2022-11-28T13:05:54.411Z,1138.3
2022-11-28T13:07:37.612Z,1134.1
2022-11-28T13:09:21.199Z,1132.3
2022-11-28T13:11:04.578Z,1132.1
2022-11-28T13:12:47.980Z,1130.5
2022-11-28T13:16:14.419Z,1133.9
2022-11-28T13:17:57.725Z,1135.3
2022-11-28T13:19:41.221Z,1139.8
2022-11-28T13:21:24.631Z,1141.8
2022-11-28T13:23:08.010Z,1140.3
2022-11-28T13:24:51.250Z,1147.4
2022-11-28T13:26:34.639Z,1156.5
2022-11-28T13:30:01.144Z,1167.9
2022-11-28T13:31:44.532Z,1172
2022-11-28T13:33:27.973Z,1174.7
2022-11-28T13:35:11.305Z,1175.7
2022-11-28T13:36:54.879Z,1172.1
2022-11-28T13:38:38.115Z,1166.7
2022-11-28T13:40:21.742Z,1163.3
2022-11-28T13:43:48.120Z,1160.6
2022-11-28T13:45:31.470Z,1155.4
2022-11-28T13:47:14.834Z,1153.5
2022-11-28T13:48:58.338Z,1150.6
2022-11-28T13:50:41.542Z,1146.1
2022-11-28T13:52:25.106Z,1143
2022-11-28T13:54:08.417Z,1142
2022-11-28T13:55:51.750Z,1137.5
2022-11-28T13:57:35.422Z,1135.4
2022-11-28T13:59:18.842Z,1133
2022-11-28T14:01:02.227Z,1131.1
2022-11-28T14:02:45.626Z,1131
2022-11-28T14:04:29.022Z,1127.1
2022-11-28T14:06:12.431Z,1126.5
2022-11-28T14:07:55.815Z,1124.7
2022-11-28T14:09:39.206Z,1125.3
2022-11-28T14:11:22.913Z,1121.7
2022-11-28T14:13:06.485Z,1118.8
2022-11-28T14:14:49.876Z,1111.7
2022-11-28T14:16:33.190Z,1107.1
2022-11-28T14:18:16.625Z,1099
2022-11-28T14:19:59.922Z,1092.7
2022-11-28T14:21:43.452Z,1087.1
2022-11-28T14:23:26.860Z,1075.3
2022-11-28T14:25:10.522Z,1065.8
2022-11-28T14:26:53.959Z,1060.1
2022-11-28T14:28:37.322Z,1053.8
2022-11-28T14:30:20.646Z,1045.4
2022-11-28T14:32:04.026Z,1039.7
2022-11-28T14:33:47.414Z,1038
2022-11-28T14:35:30.780Z,1037.3
2022-11-28T14:37:14.212Z,1030.2
2022-11-28T14:38:57.951Z,1022.1
2022-11-28T14:40:41.273Z,1016.4
2022-11-28T14:42:24.782Z,1013.5
2022-11-28T14:44:08.153Z,1012.5
2022-11-28T14:45:51.489Z,1010.6
2022-11-28T14:47:34.902Z,1008.7
2022-11-28T14:49:18.441Z,1003.7
2022-11-28T14:51:01.707Z,1002.6
2022-11-28T14:52:45.343Z,1003.5
2022-11-28T14:54:28.895Z,1001.3
2022-11-28T14:56:12.354Z,1005.4
2022-11-28T14:57:55.665Z,1006.7
2022-11-28T14:59:38.943Z,1009.5
2022-11-28T15:01:22.464Z,1009.4
2022-11-28T15:03:05.761Z,1008
2022-11-28T15:08:15.146Z,1010.4
2022-11-28T15:09:58.359Z,1008.3
2022-11-28T15:11:41.755Z,1009.6
2022-11-28T15:13:25.273Z,1023.6
2022-11-28T15:15:08.619Z,1045.2
2022-11-28T15:16:52.098Z,1076.4
2022-11-28T15:18:35.474Z,1082.6
2022-11-28T15:22:01.965Z,1108.6
2022-11-28T15:23:45.215Z,1114.8
2022-11-28T15:25:28.616Z,1110.4
2022-11-28T15:27:11.989Z,1109
2022-11-28T15:28:55.396Z,1110.2
2022-11-28T15:30:38.792Z,1107.7
2022-11-28T15:32:22.185Z,1108.4
2022-11-28T15:37:31.420Z,1097.6
2022-11-28T15:39:14.821Z,1095.2
2022-11-28T15:40:58.214Z,1093.1
2022-11-28T15:42:41.614Z,1089.7
2022-11-28T15:44:25.010Z,1084.1
2022-11-28T15:46:08.398Z,1079.2
2022-11-28T15:47:51.807Z,1072.6
2022-11-28T15:51:18.268Z,1056.7
2022-11-28T15:53:01.673Z,1050.4
2022-11-28T15:54:45.087Z,1046.7
2022-11-28T15:56:28.516Z,1044.2
2022-11-28T15:58:11.861Z,1040.3
2022-11-28T15:59:55.254Z,1038.3
2022-11-28T16:01:38.659Z,1032.1
2022-11-28T16:03:22.057Z,1027.2
2022-11-28T16:05:05.735Z,1026.1
2022-11-28T16:06:49.160Z,1022.7
2022-11-28T16:08:32.545Z,1021
2022-11-28T16:10:15.950Z,1020.2
2022-11-28T16:11:59.327Z,1018.8
2022-11-28T16:13:42.721Z,1019.2
2022-11-28T16:15:26.114Z,1022.5
2022-11-28T16:18:52.610Z,1037.9
2022-11-28T16:20:36.001Z,1048
2022-11-28T16:22:19.422Z,1061.2
2022-11-28T16:24:02.785Z,1094.4
2022-11-28T16:25:46.176Z,1127.1
2022-11-28T16:27:29.571Z,1132.7
2022-11-28T16:29:12.972Z,1144.4
2022-11-28T16:32:39.443Z,1174.4
2022-11-28T16:34:22.839Z,1185.3
2022-11-28T16:36:06.263Z,1198.3
2022-11-28T16:37:49.649Z,1212.3
2022-11-28T16:39:33.015Z,1217.6
2022-11-28T16:41:16.411Z,1219.6
2022-11-28T16:42:59.803Z,1222.3
2022-11-28T16:48:09.044Z,1229.5
2022-11-28T16:49:52.428Z,1228.3
2022-11-28T16:51:35.848Z,1226.7
2022-11-28T16:53:19.228Z,1229.4
2022-11-28T16:55:02.647Z,1228.5
2022-11-28T16:56:46.032Z,1228
2022-11-28T16:58:29.412Z,1225.4
2022-11-28T17:01:55.911Z,1216.7
2022-11-28T17:03:39.299Z,1214.5
2022-11-28T17:05:22.701Z,1213.4
2022-11-28T17:07:06.098Z,1214.8
2022-11-28T17:08:49.481Z,1216.1
2022-11-28T17:10:32.916Z,1223.8
2022-11-28T17:12:16.272Z,1225.2
2022-11-28T17:15:42.758Z,1226.9
2022-11-28T17:17:26.137Z,1228.7
2022-11-28T17:19:09.541Z,1231.8
2022-11-28T17:20:52.924Z,1233.1
2022-11-28T17:22:36.336Z,1238.4
2022-11-28T17:24:19.714Z,1240.1
2022-11-28T17:26:03.116Z,1241.5
2022-11-28T17:27:46.513Z,1241.1
2022-11-28T17:29:30.213Z,1240.9
2022-11-28T17:31:13.610Z,1243.3
2022-11-28T17:32:57.015Z,1247.8
2022-11-28T17:34:40.398Z,1249.6
2022-11-28T17:36:23.821Z,1259
2022-11-28T17:38:07.214Z,1276.3
2022-11-28T17:39:50.603Z,1285.2
2022-11-28T17:43:17.075Z,1284.6
2022-11-28T17:45:00.467Z,1282.8
2022-11-28T17:46:43.846Z,1279.4
2022-11-28T17:48:27.252Z,1275.1
2022-11-28T17:50:10.663Z,1264.2
2022-11-28T17:51:54.039Z,1258.2
2022-11-28T17:53:37.440Z,1252.3
2022-11-28T17:58:46.679Z,1227.5
2022-11-28T18:00:30.092Z,1220.8
2022-11-28T18:02:13.490Z,1216.6
2022-11-28T18:03:56.874Z,1211.4
2022-11-28T18:05:40.274Z,1206.6
2022-11-28T18:07:23.674Z,1199.2
2022-11-28T18:09:07.061Z,1195
2022-11-28T18:12:33.558Z,1205.9
2022-11-28T18:14:16.938Z,1206.1
2022-11-28T18:16:00.341Z,1207
2022-11-28T18:17:43.721Z,1204.6
2022-11-28T18:19:27.119Z,1200.7
2022-11-28T18:21:10.541Z,1195.5
2022-11-28T18:22:53.931Z,1191.3
2022-11-28T18:28:03.182Z,1187.7
2022-11-28T18:29:46.572Z,1186.6
2022-11-28T18:31:29.966Z,1186.8
2022-11-28T18:33:13.356Z,1186.6
2022-11-28T18:34:56.732Z,1185.4
2022-11-28T18:36:40.146Z,1185.6
2022-11-28T18:38:23.545Z,1190.7
2022-11-28T18:43:32.819Z,1194.6
2022-11-28T18:45:16.185Z,1193.1
2022-11-28T18:46:59.569Z,1185.7
2022-11-28T18:48:42.982Z,1184.7
2022-11-28T18:50:26.368Z,1189.2
2022-11-28T18:52:09.767Z,1198.3
2022-11-28T18:53:53.169Z,1206.7
2022-11-28T18:57:19.655Z,1228.2
2022-11-28T18:59:03.015Z,1234.7
2022-11-28T19:00:46.420Z,1237.8
2022-11-28T19:02:29.829Z,1242
2022-11-28T19:04:13.226Z,1243.8
2022-11-28T19:05:56.621Z,1246.3
2022-11-28T19:07:40.018Z,1244
2022-11-28T19:09:23.428Z,1243
2022-11-28T19:11:07.124Z,1243.7
2022-11-28T19:12:50.501Z,1241.2
2022-11-28T19:14:33.914Z,1238.7
2022-11-28T19:16:17.308Z,1243.3
2022-11-28T19:18:00.698Z,1257.3
2022-11-28T19:19:44.109Z,1301.2
2022-11-28T19:21:27.499Z,1313.3
2022-11-28T19:23:10.886Z,1309.2
2022-11-28T19:24:54.588Z,1302.1
2022-11-28T19:26:37.997Z,1286.7
2022-11-28T19:28:21.380Z,1274.3
2022-11-28T19:30:04.791Z,1269.8
2022-11-28T19:31:48.183Z,1268.6
2022-11-28T19:33:31.605Z,1267.4
2022-11-28T19:35:14.980Z,1266.8
2022-11-28T19:36:58.390Z,1269.6
2022-11-28T19:38:42.085Z,1276.8
2022-11-28T19:40:25.472Z,1283.8
2022-11-28T19:42:08.883Z,1283
2022-11-28T19:43:52.279Z,1278.6
2022-11-28T19:45:35.655Z,1274.7
2022-11-28T19:47:19.066Z,1274.6
2022-11-28T19:49:02.471Z,1274.8
2022-11-28T19:50:45.844Z,1277.3
2022-11-28T19:52:29.566Z,1275.4
2022-11-28T19:54:12.959Z,1271.3
2022-11-28T19:55:56.344Z,1265.8
2022-11-28T19:57:39.776Z,1264.5
2022-11-28T19:59:23.150Z,1263.2
2022-11-28T20:01:06.541Z,1262.3
2022-11-28T20:02:49.928Z,1259.1
2022-11-28T20:07:59.199Z,1270.3
2022-11-28T20:09:42.576Z,1269.6
2022-11-28T20:11:25.976Z,1267.6
2022-11-28T20:13:09.373Z,1267.5
2022-11-28T20:14:52.774Z,1270.4
2022-11-28T20:16:36.163Z,1270.5
2022-11-28T20:18:19.561Z,1269.7
2022-11-28T20:21:46.029Z,1269.6
2022-11-28T20:23:29.476Z,1265.2
2022-11-28T20:25:12.873Z,1262.8
2022-11-28T20:26:56.234Z,1260.1
2022-11-28T20:28:39.607Z,1257.7
2022-11-28T20:30:23.013Z,1258.1
2022-11-28T20:32:06.459Z,1259.8
2022-11-28T20:33:49.794Z,1255.7
2022-11-28T20:35:33.505Z,1251.4
2022-11-28T20:37:16.898Z,1250.1
2022-11-28T20:39:00.314Z,1253.8
2022-11-28T20:40:43.699Z,1257.6
2022-11-28T20:42:27.100Z,1260
2022-11-28T20:44:10.494Z,1259.8
2022-11-28T20:45:53.896Z,1260.2
2022-11-28T20:51:03.146Z,1285.9
2022-11-28T20:52:46.527Z,1293.1
2022-11-28T20:54:29.930Z,1298.6
2022-11-28T20:56:13.322Z,1306
2022-11-28T20:57:56.721Z,1305.7
2022-11-28T20:59:40.124Z,1303.1
2022-11-28T21:01:23.522Z,1299.7
2022-11-28T21:04:50.012Z,1302.9
2022-11-28T21:06:33.385Z,1307.2
2022-11-28T21:08:16.801Z,1320.6
2022-11-28T21:10:00.178Z,1323.2
